sensor_id;sensor_type;location;lat;lon;timestamp;pressure;altitude;pressure_sealevel;temperature;humidity
39243;BME280;29823;47.404;8.566;2023-04-24T00:00:12;95655.50;;;10.74;100.00
39243;BME280;29823;47.404;8.566;2023-04-24T00:02:41;95666.25;;;10.79;100.00
39243;BME280;29823;47.404;8.566;2023-04-24T00:05:12;95637.72;;;10.58;100.00
39243;BME280;29823;47.404;8.566;2023-04-24T00:07:40;95669.03;;;10.62;100.00
39243;BME280;29823;47.404;8.566;2023-04-24T00:10:09;95652.00;;;10.73;100.00
39243;BME280;29823;47.404;8.566;2023-04-24T00:12:38;95663.16;;;10.92;100.00
39243;BME280;29823;47.404;8.566;2023-04-24T00:15:07;95657.41;;;10.78;100.00
39243;BME280;29823;47.404;8.566;2023-04-24T00:17:35;95655.50;;;10.74;100.00
39243;BME280;29823;47.404;8.566;2023-04-24T00:20:03;95660.34;;;10.77;100.00
39243;BME280;29823;47.404;8.566;2023-04-24T00:22:33;95667.56;;;10.76;100.00
39243;BME280;29823;47.404;8.566;2023-04-24T00:25:01;95670.72;;;10.73;100.00
39243;BME280;29823;47.404;8.566;2023-04-24T00:27:31;95659.34;;;10.56;100.00
39243;BME280;29823;47.404;8.566;2023-04-24T00:29:58;95665.16;;;10.53;100.00
39243;BME280;29823;47.404;8.566;2023-04-24T00:32:26;95674.41;;;10.67;100.00
39243;BME280;29823;47.404;8.566;2023-04-24T00:34:54;95664.06;;;10.49;100.00
39243;BME280;29823;47.404;8.566;2023-04-24T00:37:22;95668.06;;;10.47;100.00
39243;BME280;29823;47.404;8.566;2023-04-24T00:39:50;95665.69;;;10.50;100.00
39243;BME280;29823;47.404;8.566;2023-04-24T00:42:18;95670.50;;;10.53;100.00
39243;BME280;29823;47.404;8.566;2023-04-24T00:44:47;95667.06;;;10.53;100.00
39243;BME280;29823;47.404;8.566;2023-04-24T00:47:15;95622.44;;;10.05;100.00
39243;BME280;29823;47.404;8.566;2023-04-24T00:49:43;95660.16;;;10.57;100.00
39243;BME280;29823;47.404;8.566;2023-04-24T00:52:11;95667.81;;;10.48;100.00
39243;BME280;29823;47.404;8.566;2023-04-24T00:54:44;95667.41;;;10.61;100.00
39243;BME280;29823;47.404;8.566;2023-04-24T00:57:12;95657.84;;;10.65;100.00
39243;BME280;29823;47.404;8.566;2023-04-24T00:59:41;95667.50;;;10.71;100.00
39243;BME280;29823;47.404;8.566;2023-04-24T01:02:11;95645.91;;;10.51;100.00
39243;BME280;29823;47.404;8.566;2023-04-24T01:04:39;95643.78;;;10.53;100.00
39243;BME280;29823;47.404;8.566;2023-04-24T01:07:07;95642.28;;;10.62;100.00
39243;BME280;29823;47.404;8.566;2023-04-24T01:09:40;95651.47;;;10.71;100.00
39243;BME280;29823;47.404;8.566;2023-04-24T01:12:09;95658.31;;;10.62;100.00
39243;BME280;29823;47.404;8.566;2023-04-24T01:14:37;95655.59;;;10.57;100.00
39243;BME280;29823;47.404;8.566;2023-04-24T01:17:05;95642.75;;;10.54;100.00
39243;BME280;29823;47.404;8.566;2023-04-24T01:19:35;95655.34;;;10.59;100.00
39243;BME280;29823;47.404;8.566;2023-04-24T01:22:08;95650.25;;;10.57;100.00
39243;BME280;29823;47.404;8.566;2023-04-24T01:24:38;95655.72;;;10.67;100.00
39243;BME280;29823;47.404;8.566;2023-04-24T01:27:06;95656.53;;;10.68;100.00
39243;BME280;29823;47.404;8.566;2023-04-24T01:29:34;95652.28;;;10.45;100.00
39243;BME280;29823;47.404;8.566;2023-04-24T01:32:03;95653.94;;;10.51;100.00
39243;BME280;29823;47.404;8.566;2023-04-24T01:34:31;95659.75;;;10.43;100.00
39243;BME280;29823;47.404;8.566;2023-04-24T01:36:59;95666.41;;;10.41;100.00
39243;BME280;29823;47.404;8.566;2023-04-24T01:39:29;95647.13;;;10.39;100.00
39243;BME280;29823;47.404;8.566;2023-04-24T01:41:59;95621.50;;;10.16;100.00
39243;BME280;29823;47.404;8.566;2023-04-24T01:44:28;95666.50;;;10.51;100.00
39243;BME280;29823;47.404;8.566;2023-04-24T01:46:56;95662.13;;;10.45;100.00
39243;BME280;29823;47.404;8.566;2023-04-24T01:49:23;95657.63;;;10.45;100.00
39243;BME280;29823;47.404;8.566;2023-04-24T01:51:51;95665.03;;;10.38;100.00
39243;BME280;29823;47.404;8.566;2023-04-24T01:54:19;95668.53;;;10.44;100.00
39243;BME280;29823;47.404;8.566;2023-04-24T01:56:48;95676.38;;;10.50;100.00
39243;BME280;29823;47.404;8.566;2023-04-24T01:59:17;95676.00;;;10.20;100.00
39243;BME280;29823;47.404;8.566;2023-04-24T02:01:45;95679.25;;;10.22;100.00
39243;BME280;29823;47.404;8.566;2023-04-24T02:04:13;95672.38;;;10.05;100.00
39243;BME280;29823;47.404;8.566;2023-04-24T02:06:41;95662.94;;;10.19;100.00
39243;BME280;29823;47.404;8.566;2023-04-24T02:09:09;95582.44;;;9.67;100.00
39243;BME280;29823;47.404;8.566;2023-04-24T02:11:37;95676.44;;;10.34;100.00
39243;BME280;29823;47.404;8.566;2023-04-24T02:14:06;95664.03;;;10.23;100.00
39243;BME280;29823;47.404;8.566;2023-04-24T02:16:34;95614.16;;;9.85;100.00
39243;BME280;29823;47.404;8.566;2023-04-24T02:19:02;95670.19;;;10.23;100.00
39243;BME280;29823;47.404;8.566;2023-04-24T02:21:31;95660.25;;;10.19;100.00
39243;BME280;29823;47.404;8.566;2023-04-24T02:23:59;95665.97;;;10.27;100.00
39243;BME280;29823;47.404;8.566;2023-04-24T02:26:27;95662.78;;;10.30;100.00
39243;BME280;29823;47.404;8.566;2023-04-24T02:28:55;95666.09;;;10.37;100.00
39243;BME280;29823;47.404;8.566;2023-04-24T02:31:24;95671.81;;;10.24;100.00
39243;BME280;29823;47.404;8.566;2023-04-24T02:33:52;95672.31;;;10.21;100.00
39243;BME280;29823;47.404;8.566;2023-04-24T02:36:20;95665.44;;;10.30;100.00
39243;BME280;29823;47.404;8.566;2023-04-24T02:38:48;95659.00;;;10.26;100.00
39243;BME280;29823;47.404;8.566;2023-04-24T02:41:16;95662.25;;;10.28;100.00
39243;BME280;29823;47.404;8.566;2023-04-24T02:43:43;95668.81;;;10.21;100.00
39243;BME280;29823;47.404;8.566;2023-04-24T02:46:11;95666.47;;;10.24;100.00
39243;BME280;29823;47.404;8.566;2023-04-24T02:48:40;95663.38;;;10.32;100.00
39243;BME280;29823;47.404;8.566;2023-04-24T02:51:08;95660.69;;;10.32;100.00
39243;BME280;29823;47.404;8.566;2023-04-24T02:53:36;95658.97;;;10.21;100.00
39243;BME280;29823;47.404;8.566;2023-04-24T02:56:04;95627.19;;;10.03;100.00
39243;BME280;29823;47.404;8.566;2023-04-24T02:58:32;95652.03;;;10.25;100.00
39243;BME280;29823;47.404;8.566;2023-04-24T03:00:59;95660.41;;;10.34;100.00
39243;BME280;29823;47.404;8.566;2023-04-24T03:03:27;95649.88;;;10.22;100.00
39243;BME280;29823;47.404;8.566;2023-04-24T03:05:57;95659.63;;;10.33;100.00
39243;BME280;29823;47.404;8.566;2023-04-24T03:08:25;95641.22;;;10.15;100.00
39243;BME280;29823;47.404;8.566;2023-04-24T03:10:52;95651.25;;;10.25;100.00
39243;BME280;29823;47.404;8.566;2023-04-24T03:13:20;95649.94;;;10.27;100.00
39243;BME280;29823;47.404;8.566;2023-04-24T03:15:48;95649.44;;;10.30;100.00
39243;BME280;29823;47.404;8.566;2023-04-24T03:18:16;95654.53;;;10.32;100.00
39243;BME280;29823;47.404;8.566;2023-04-24T03:20:45;95641.63;;;10.24;100.00
39243;BME280;29823;47.404;8.566;2023-04-24T03:23:15;95641.88;;;10.22;100.00
39243;BME280;29823;47.404;8.566;2023-04-24T03:25:42;95633.84;;;10.22;100.00
39243;BME280;29823;47.404;8.566;2023-04-24T03:28:10;95640.28;;;10.26;100.00
39243;BME280;29823;47.404;8.566;2023-04-24T03:30:38;95647.00;;;10.29;100.00
39243;BME280;29823;47.404;8.566;2023-04-24T03:33:06;95650.44;;;10.24;100.00
39243;BME280;29823;47.404;8.566;2023-04-24T03:35:34;95661.22;;;10.34;100.00
39243;BME280;29823;47.404;8.566;2023-04-24T03:38:02;95644.09;;;10.30;100.00
39243;BME280;29823;47.404;8.566;2023-04-24T03:40:32;95626.56;;;10.39;100.00
39243;BME280;29823;47.404;8.566;2023-04-24T03:43:01;95640.41;;;10.36;100.00
39243;BME280;29823;47.404;8.566;2023-04-24T03:45:29;95641.28;;;10.42;100.00
39243;BME280;29823;47.404;8.566;2023-04-24T03:47:59;95643.06;;;10.36;100.00
39243;BME280;29823;47.404;8.566;2023-04-24T03:50:26;95641.47;;;10.35;100.00
39243;BME280;29823;47.404;8.566;2023-04-24T03:52:55;95634.34;;;10.41;100.00
39243;BME280;29823;47.404;8.566;2023-04-24T03:55:23;95632.38;;;10.36;100.00
39243;BME280;29823;47.404;8.566;2023-04-24T03:57:52;95629.78;;;10.41;100.00
39243;BME280;29823;47.404;8.566;2023-04-24T04:00:20;95629.22;;;10.39;100.00
39243;BME280;29823;47.404;8.566;2023-04-24T04:02:48;95634.34;;;10.41;100.00
39243;BME280;29823;47.404;8.566;2023-04-24T04:05:16;95639.84;;;10.34;100.00
39243;BME280;29823;47.404;8.566;2023-04-24T04:07:44;95640.69;;;10.35;100.00
39243;BME280;29823;47.404;8.566;2023-04-24T04:10:12;95639.75;;;10.24;100.00
39243;BME280;29823;47.404;8.566;2023-04-24T04:12:40;95629.66;;;10.31;100.00
39243;BME280;29823;47.404;8.566;2023-04-24T04:15:10;95611.50;;;10.07;100.00
39243;BME280;29823;47.404;8.566;2023-04-24T04:17:38;95638.19;;;10.28;100.00
39243;BME280;29823;47.404;8.566;2023-04-24T04:20:07;95644.72;;;10.37;100.00
39243;BME280;29823;47.404;8.566;2023-04-24T04:22:37;95639.56;;;10.31;100.00
39243;BME280;29823;47.404;8.566;2023-04-24T04:25:06;95656.94;;;10.33;100.00
39243;BME280;29823;47.404;8.566;2023-04-24T04:27:34;95649.44;;;10.30;100.00
39243;BME280;29823;47.404;8.566;2023-04-24T04:30:03;95649.44;;;10.30;100.00
39243;BME280;29823;47.404;8.566;2023-04-24T04:32:33;95656.91;;;10.28;100.00
39243;BME280;29823;47.404;8.566;2023-04-24T04:35:02;95675.13;;;10.36;100.00
39243;BME280;29823;47.404;8.566;2023-04-24T04:37:30;95671.31;;;10.27;100.00
39243;BME280;29823;47.404;8.566;2023-04-24T04:39:58;95673.63;;;10.19;100.00
39243;BME280;29823;47.404;8.566;2023-04-24T04:42:26;95669.38;;;10.23;100.00
39243;BME280;29823;47.404;8.566;2023-04-24T04:44:55;95668.28;;;10.19;100.00
39243;BME280;29823;47.404;8.566;2023-04-24T04:47:24;95696.28;;;10.16;100.00
39243;BME280;29823;47.404;8.566;2023-04-24T04:49:54;95702.13;;;10.35;100.00
39243;BME280;29823;47.404;8.566;2023-04-24T04:52:22;95709.88;;;10.15;100.00
39243;BME280;29823;47.404;8.566;2023-04-24T04:54:51;95713.94;;;10.17;100.00
39243;BME280;29823;47.404;8.566;2023-04-24T04:57:19;95726.28;;;10.23;100.00
39243;BME280;29823;47.404;8.566;2023-04-24T04:59:47;95730.19;;;10.16;100.00
39243;BME280;29823;47.404;8.566;2023-04-24T05:02:15;95737.03;;;10.28;100.00
39243;BME280;29823;47.404;8.566;2023-04-24T05:04:43;95739.88;;;10.22;100.00
39243;BME280;29823;47.404;8.566;2023-04-24T05:07:13;95742.09;;;10.08;100.00
39243;BME280;29823;47.404;8.566;2023-04-24T05:09:41;95751.69;;;9.88;100.00
39243;BME280;29823;47.404;8.566;2023-04-24T05:12:10;95754.03;;;9.68;100.00
39243;BME280;29823;47.404;8.566;2023-04-24T05:14:38;95767.38;;;9.68;100.00
39243;BME280;29823;47.404;8.566;2023-04-24T05:17:08;95769.31;;;9.39;100.00
39243;BME280;29823;47.404;8.566;2023-04-24T05:19:36;95769.22;;;9.34;100.00
39243;BME280;29823;47.404;8.566;2023-04-24T05:22:05;95777.09;;;9.41;100.00
39243;BME280;29823;47.404;8.566;2023-04-24T05:24:34;95780.47;;;9.53;100.00
39243;BME280;29823;47.404;8.566;2023-04-24T05:27:02;95789.06;;;9.55;100.00
39243;BME280;29823;47.404;8.566;2023-04-24T05:29:31;95798.44;;;9.57;100.00
39243;BME280;29823;47.404;8.566;2023-04-24T05:32:00;95794.38;;;9.71;100.00
39243;BME280;29823;47.404;8.566;2023-04-24T05:34:28;95787.84;;;9.46;100.00
39243;BME280;29823;47.404;8.566;2023-04-24T05:36:56;95787.84;;;9.46;100.00
39243;BME280;29823;47.404;8.566;2023-04-24T05:39:24;95794.31;;;9.50;100.00
39243;BME280;29823;47.404;8.566;2023-04-24T05:41:53;95798.13;;;9.54;100.00
39243;BME280;29823;47.404;8.566;2023-04-24T05:44:24;95809.91;;;9.58;100.00
39243;BME280;29823;47.404;8.566;2023-04-24T05:46:52;95796.06;;;9.44;100.00
39243;BME280;29823;47.404;8.566;2023-04-24T05:49:21;95811.03;;;9.45;100.00
39243;BME280;29823;47.404;8.566;2023-04-24T05:51:49;95810.66;;;9.53;100.00
39243;BME280;29823;47.404;8.566;2023-04-24T05:54:17;95819.47;;;9.70;100.00
39243;BME280;29823;47.404;8.566;2023-04-24T05:56:45;95822.31;;;9.80;100.00
39243;BME280;29823;47.404;8.566;2023-04-24T05:59:14;95825.78;;;9.81;100.00
39243;BME280;29823;47.404;8.566;2023-04-24T06:01:42;95805.06;;;9.71;100.00
39243;BME280;29823;47.404;8.566;2023-04-24T06:04:12;95833.38;;;9.89;100.00
39243;BME280;29823;47.404;8.566;2023-04-24T06:06:41;95815.41;;;9.68;100.00
39243;BME280;29823;47.404;8.566;2023-04-24T06:09:09;95828.28;;;9.87;100.00
39243;BME280;29823;47.404;8.566;2023-04-24T06:11:38;95824.31;;;9.90;100.00
39243;BME280;29823;47.404;8.566;2023-04-24T06:14:06;95823.38;;;10.12;100.00
39243;BME280;29823;47.404;8.566;2023-04-24T06:16:35;95823.53;;;10.22;100.00
39243;BME280;29823;47.404;8.566;2023-04-24T06:19:05;95818.72;;;10.24;100.00
39243;BME280;29823;47.404;8.566;2023-04-24T06:21:33;95828.81;;;10.39;100.00
39243;BME280;29823;47.404;8.566;2023-04-24T06:24:01;95829.00;;;10.32;100.00
39243;BME280;29823;47.404;8.566;2023-04-24T06:26:28;95822.38;;;10.18;100.00
39243;BME280;29823;47.404;8.566;2023-04-24T06:28:56;95818.44;;;10.42;100.00
39243;BME280;29823;47.404;8.566;2023-04-24T06:31:25;95823.84;;;10.47;100.00
39243;BME280;29823;47.404;8.566;2023-04-24T06:33:54;95823.06;;;10.68;100.00
39243;BME280;29823;47.404;8.566;2023-04-24T06:36:22;95817.41;;;10.65;100.00
39243;BME280;29823;47.404;8.566;2023-04-24T06:38:50;95807.84;;;10.69;100.00
39243;BME280;29823;47.404;8.566;2023-04-24T06:41:18;95817.09;;;11.04;100.00
39243;BME280;29823;47.404;8.566;2023-04-24T06:43:45;95824.28;;;11.25;100.00
39243;BME280;29823;47.404;8.566;2023-04-24T06:46:13;95814.56;;;11.19;100.00
39243;BME280;29823;47.404;8.566;2023-04-24T06:48:41;95817.28;;;11.72;100.00
39243;BME280;29823;47.404;8.566;2023-04-24T06:51:10;95811.59;;;12.00;100.00
39243;BME280;29823;47.404;8.566;2023-04-24T06:53:38;95809.03;;;12.15;100.00
39243;BME280;29823;47.404;8.566;2023-04-24T06:56:06;95816.72;;;12.07;100.00
39243;BME280;29823;47.404;8.566;2023-04-24T06:58:34;95817.06;;;12.15;100.00
39243;BME280;29823;47.404;8.566;2023-04-24T07:01:02;95811.72;;;12.15;100.00
39243;BME280;29823;47.404;8.566;2023-04-24T07:03:30;95806.25;;;12.47;100.00
39243;BME280;29823;47.404;8.566;2023-04-24T07:05:58;95810.25;;;11.98;100.00
39243;BME280;29823;47.404;8.566;2023-04-24T07:08:27;95821.06;;;11.81;100.00
39243;BME280;29823;47.404;8.566;2023-04-24T07:10:57;95803.16;;;11.82;100.00
39243;BME280;29823;47.404;8.566;2023-04-24T07:13:25;95799.19;;;11.89;100.00
39243;BME280;29823;47.404;8.566;2023-04-24T07:15:53;95820.53;;;11.79;100.00
39243;BME280;29823;47.404;8.566;2023-04-24T07:18:22;95827.47;;;12.12;100.00
39243;BME280;29823;47.404;8.566;2023-04-24T07:20:50;95817.03;;;11.79;100.00
39243;BME280;29823;47.404;8.566;2023-04-24T07:23:19;95811.63;;;11.74;100.00
39243;BME280;29823;47.404;8.566;2023-04-24T07:25:48;95819.16;;;11.77;100.00
39243;BME280;29823;47.404;8.566;2023-04-24T07:28:16;95818.03;;;12.41;100.00
39243;BME280;29823;47.404;8.566;2023-04-24T07:30:44;95824.25;;;12.51;100.00
39243;BME280;29823;47.404;8.566;2023-04-24T07:33:12;95834.84;;;13.34;100.00
39243;BME280;29823;47.404;8.566;2023-04-24T07:35:40;95805.00;;;12.59;100.00
39243;BME280;29823;47.404;8.566;2023-04-24T07:38:08;95837.47;;;13.14;100.00
39243;BME280;29823;47.404;8.566;2023-04-24T07:40:36;95832.22;;;12.93;100.00
39243;BME280;29823;47.404;8.566;2023-04-24T07:43:05;95838.25;;;12.63;100.00
39243;BME280;29823;47.404;8.566;2023-04-24T07:45:33;95844.66;;;12.57;100.00
39243;BME280;29823;47.404;8.566;2023-04-24T07:48:03;95843.94;;;13.23;100.00
39243;BME280;29823;47.404;8.566;2023-04-24T07:50:31;95831.66;;;13.52;100.00
39243;BME280;29823;47.404;8.566;2023-04-24T07:52:59;95850.34;;;13.17;100.00
39243;BME280;29823;47.404;8.566;2023-04-24T07:55:27;95840.91;;;12.53;100.00
39243;BME280;29823;47.404;8.566;2023-04-24T07:57:55;95858.06;;;12.57;100.00
39243;BME280;29823;47.404;8.566;2023-04-24T08:00:24;95875.25;;;12.20;100.00
39243;BME280;29823;47.404;8.566;2023-04-24T08:02:52;95887.03;;;11.39;100.00
39243;BME280;29823;47.404;8.566;2023-04-24T08:05:20;95899.13;;;10.77;100.00
39243;BME280;29823;47.404;8.566;2023-04-24T08:07:48;95928.78;;;9.49;100.00
39243;BME280;29823;47.404;8.566;2023-04-24T08:10:16;95913.81;;;8.46;100.00
39243;BME280;29823;47.404;8.566;2023-04-24T08:12:44;95937.09;;;8.39;100.00
39243;BME280;29823;47.404;8.566;2023-04-24T08:15:12;95939.88;;;8.32;100.00
39243;BME280;29823;47.404;8.566;2023-04-24T08:17:41;95947.97;;;8.37;100.00
39243;BME280;29823;47.404;8.566;2023-04-24T08:20:10;95955.84;;;8.32;100.00
39243;BME280;29823;47.404;8.566;2023-04-24T08:22:40;95969.53;;;8.24;100.00
39243;BME280;29823;47.404;8.566;2023-04-24T08:25:08;95972.13;;;8.01;100.00
39243;BME280;29823;47.404;8.566;2023-04-24T08:27:36;95971.13;;;8.25;100.00
39243;BME280;29823;47.404;8.566;2023-04-24T08:30:06;95969.38;;;8.19;100.00
39243;BME280;29823;47.404;8.566;2023-04-24T08:32:35;95970.09;;;8.26;100.00
39243;BME280;29823;47.404;8.566;2023-04-24T08:35:05;95969.97;;;8.21;100.00
39243;BME280;29823;47.404;8.566;2023-04-24T08:37:35;95978.22;;;8.20;100.00
39243;BME280;29823;47.404;8.566;2023-04-24T08:40:10;95979.72;;;8.62;100.00
39243;BME280;29823;47.404;8.566;2023-04-24T08:42:39;95986.13;;;8.49;100.00
39243;BME280;29823;47.404;8.566;2023-04-24T08:45:10;95986.31;;;8.59;100.00
39243;BME280;29823;47.404;8.566;2023-04-24T08:47:39;95989.47;;;8.79;100.00
39243;BME280;29823;47.404;8.566;2023-04-24T08:50:10;95988.38;;;9.15;100.00
39243;BME280;29823;47.404;8.566;2023-04-24T08:52:39;95986.22;;;9.40;100.00
39243;BME280;29823;47.404;8.566;2023-04-24T08:55:07;95983.31;;;9.97;100.00
39243;BME280;29823;47.404;8.566;2023-04-24T08:57:35;95968.16;;;11.40;100.00
39243;BME280;29823;47.404;8.566;2023-04-24T09:00:07;95981.22;;;12.32;100.00
39243;BME280;29823;47.404;8.566;2023-04-24T09:02:40;95966.53;;;13.13;100.00
39243;BME280;29823;47.404;8.566;2023-04-24T09:05:12;95950.53;;;12.18;100.00
39243;BME280;29823;47.404;8.566;2023-04-24T09:07:45;95967.34;;;12.40;100.00
39243;BME280;29823;47.404;8.566;2023-04-24T09:10:14;95977.88;;;12.20;100.00
39243;BME280;29823;47.404;8.566;2023-04-24T09:12:43;95958.63;;;12.91;100.00
39243;BME280;29823;47.404;8.566;2023-04-24T09:15:11;95977.88;;;15.56;100.00
39243;BME280;29823;47.404;8.566;2023-04-24T09:17:39;95884.22;;;15.28;100.00
39243;BME280;29823;47.404;8.566;2023-04-24T09:20:08;95966.13;;;16.39;96.98
39243;BME280;29823;47.404;8.566;2023-04-24T09:22:38;95973.50;;;17.24;100.00
39243;BME280;29823;47.404;8.566;2023-04-24T09:25:07;95971.69;;;15.51;89.28
39243;BME280;29823;47.404;8.566;2023-04-24T09:27:41;95962.88;;;14.00;100.00
39243;BME280;29823;47.404;8.566;2023-04-24T09:30:11;95964.66;;;13.08;100.00
39243;BME280;29823;47.404;8.566;2023-04-24T09:32:39;95966.50;;;12.35;100.00
39243;BME280;29823;47.404;8.566;2023-04-24T09:35:10;95967.53;;;12.02;100.00
39243;BME280;29823;47.404;8.566;2023-04-24T09:37:43;95963.78;;;11.55;100.00
39243;BME280;29823;47.404;8.566;2023-04-24T09:40:16;95965.91;;;11.53;100.00
39243;BME280;29823;47.404;8.566;2023-04-24T09:42:44;95977.25;;;11.60;100.00
39243;BME280;29823;47.404;8.566;2023-04-24T09:45:13;95984.28;;;11.45;100.00
39243;BME280;29823;47.404;8.566;2023-04-24T09:47:42;95979.59;;;11.35;100.00
39243;BME280;29823;47.404;8.566;2023-04-24T09:50:15;95979.88;;;11.77;100.00
39243;BME280;29823;47.404;8.566;2023-04-24T09:52:47;95985.50;;;12.96;100.00
39243;BME280;29823;47.404;8.566;2023-04-24T09:55:24;95972.25;;;15.48;100.00
39243;BME280;29823;47.404;8.566;2023-04-24T09:57:53;95961.09;;;16.61;81.92
39243;BME280;29823;47.404;8.566;2023-04-24T10:00:22;95974.22;;;18.79;76.31
39243;BME280;29823;47.404;8.566;2023-04-24T10:02:51;95972.50;;;18.83;69.35
39243;BME280;29823;47.404;8.566;2023-04-24T10:05:23;95960.28;;;17.93;62.94
39243;BME280;29823;47.404;8.566;2023-04-24T10:07:56;95978.06;;;17.00;71.21
39243;BME280;29823;47.404;8.566;2023-04-24T10:10:24;95974.16;;;15.32;80.50
39243;BME280;29823;47.404;8.566;2023-04-24T10:12:52;95969.34;;;15.24;82.60
39243;BME280;29823;47.404;8.566;2023-04-24T10:15:21;95967.94;;;17.68;76.29
39243;BME280;29823;47.404;8.566;2023-04-24T10:17:49;95965.22;;;17.86;66.80
39243;BME280;29823;47.404;8.566;2023-04-24T10:20:20;95969.94;;;16.72;62.71
39243;BME280;29823;47.404;8.566;2023-04-24T10:22:50;95945.81;;;17.84;64.88
39243;BME280;29823;47.404;8.566;2023-04-24T10:25:21;95953.63;;;17.10;60.90
39243;BME280;29823;47.404;8.566;2023-04-24T10:27:50;95970.34;;;16.12;65.24
39243;BME280;29823;47.404;8.566;2023-04-24T10:30:19;95980.06;;;15.49;76.59
39243;BME280;29823;47.404;8.566;2023-04-24T10:32:47;95985.16;;;14.01;77.12
39243;BME280;29823;47.404;8.566;2023-04-24T10:35:17;95989.78;;;15.45;77.31
39243;BME280;29823;47.404;8.566;2023-04-24T10:37:50;95996.53;;;15.13;73.94
39243;BME280;29823;47.404;8.566;2023-04-24T10:40:26;95994.13;;;15.11;73.98
39243;BME280;29823;47.404;8.566;2023-04-24T10:42:55;95991.03;;;15.68;67.25
39243;BME280;29823;47.404;8.566;2023-04-24T10:45:25;95972.00;;;17.13;64.77
39243;BME280;29823;47.404;8.566;2023-04-24T10:47:56;95976.09;;;18.23;54.91
39243;BME280;29823;47.404;8.566;2023-04-24T10:50:29;95974.00;;;19.53;56.53
39243;BME280;29823;47.404;8.566;2023-04-24T10:53:05;95975.19;;;19.47;53.79
39243;BME280;29823;47.404;8.566;2023-04-24T10:55:42;95972.28;;;17.40;54.46
39243;BME280;29823;47.404;8.566;2023-04-24T10:58:11;95967.84;;;17.73;59.06
39243;BME280;29823;47.404;8.566;2023-04-24T11:00:40;95971.03;;;16.32;59.59
39243;BME280;29823;47.404;8.566;2023-04-24T11:03:23;95961.78;;;15.41;58.16
39243;BME280;29823;47.404;8.566;2023-04-24T11:05:57;95964.94;;;15.53;64.51
39243;BME280;29823;47.404;8.566;2023-04-24T11:08:27;95962.38;;;15.08;65.08
39243;BME280;29823;47.404;8.566;2023-04-24T11:10:59;95978.50;;;15.23;65.53
39243;BME280;29823;47.404;8.566;2023-04-24T11:14:06;95983.66;;;14.95;68.60
39243;BME280;29823;47.404;8.566;2023-04-24T11:16:45;95984.94;;;14.17;77.75
39243;BME280;29823;47.404;8.566;2023-04-24T11:19:24;95985.19;;;14.11;85.31
39243;BME280;29823;47.404;8.566;2023-04-24T11:21:58;95977.09;;;16.86;67.61
39243;BME280;29823;47.404;8.566;2023-04-24T11:24:30;95978.22;;;16.47;63.89
39243;BME280;29823;47.404;8.566;2023-04-24T11:27:05;95985.59;;;16.31;65.38
39243;BME280;29823;47.404;8.566;2023-04-24T11:29:44;95983.63;;;16.03;66.19
39243;BME280;29823;47.404;8.566;2023-04-24T11:32:31;95994.31;;;17.24;59.05
39243;BME280;29823;47.404;8.566;2023-04-24T11:35:02;95993.28;;;18.37;56.37
39243;BME280;29823;47.404;8.566;2023-04-24T11:37:34;95998.59;;;17.01;58.33
39243;BME280;29823;47.404;8.566;2023-04-24T11:40:05;95974.03;;;15.77;60.51
39243;BME280;29823;47.404;8.566;2023-04-24T11:42:39;95989.19;;;15.58;65.14
39243;BME280;29823;47.404;8.566;2023-04-24T11:45:08;95993.81;;;15.28;62.85
39243;BME280;29823;47.404;8.566;2023-04-24T11:47:37;95993.81;;;16.88;59.01
39243;BME280;29823;47.404;8.566;2023-04-24T11:50:07;95978.44;;;19.49;51.66
39243;BME280;29823;47.404;8.566;2023-04-24T11:52:37;96003.88;;;16.44;56.78
39243;BME280;29823;47.404;8.566;2023-04-24T11:55:07;96000.88;;;15.97;59.85
39243;BME280;29823;47.404;8.566;2023-04-24T11:57:37;96004.56;;;16.16;61.09
39243;BME280;29823;47.404;8.566;2023-04-24T12:00:06;95982.00;;;17.65;57.00
39243;BME280;29823;47.404;8.566;2023-04-24T12:02:35;96007.53;;;18.43;54.87
39243;BME280;29823;47.404;8.566;2023-04-24T12:05:06;96013.75;;;17.26;55.68
39243;BME280;29823;47.404;8.566;2023-04-24T12:07:40;95998.69;;;18.56;54.48
39243;BME280;29823;47.404;8.566;2023-04-24T12:10:10;95991.66;;;16.90;59.03
39243;BME280;29823;47.404;8.566;2023-04-24T12:12:39;95992.38;;;15.65;63.08
39243;BME280;29823;47.404;8.566;2023-04-24T12:15:08;95998.78;;;15.89;60.97
39243;BME280;29823;47.404;8.566;2023-04-24T12:17:41;95990.13;;;15.04;65.67
39243;BME280;29823;47.404;8.566;2023-04-24T12:20:10;95987.03;;;17.53;57.31
39243;BME280;29823;47.404;8.566;2023-04-24T12:22:45;95994.09;;;19.93;52.04
39243;BME280;29823;47.404;8.566;2023-04-24T12:25:15;95984.53;;;20.93;49.71
39243;BME280;29823;47.404;8.566;2023-04-24T12:27:51;96006.09;;;19.33;50.06
39243;BME280;29823;47.404;8.566;2023-04-24T12:30:20;96001.22;;;17.35;54.59
39243;BME280;29823;47.404;8.566;2023-04-24T12:32:49;95997.00;;;15.65;58.08
39243;BME280;29823;47.404;8.566;2023-04-24T12:35:20;96009.47;;;15.21;59.77
39243;BME280;29823;47.404;8.566;2023-04-24T12:37:49;95999.53;;;14.66;63.39
39243;BME280;29823;47.404;8.566;2023-04-24T12:40:18;96018.06;;;15.48;65.63
39243;BME280;29823;47.404;8.566;2023-04-24T12:42:48;95999.84;;;19.19;58.87
39243;BME280;29823;47.404;8.566;2023-04-24T12:45:18;96001.31;;;18.79;54.27
39243;BME280;29823;47.404;8.566;2023-04-24T12:47:48;95989.13;;;17.56;55.23
39243;BME280;29823;47.404;8.566;2023-04-24T12:50:16;95980.19;;;18.02;52.79
39243;BME280;29823;47.404;8.566;2023-04-24T12:52:44;95979.47;;;16.64;55.22
39243;BME280;29823;47.404;8.566;2023-04-24T12:55:12;95980.31;;;16.60;55.18
39243;BME280;29823;47.404;8.566;2023-04-24T12:57:40;95976.91;;;16.44;57.54
39243;BME280;29823;47.404;8.566;2023-04-24T13:00:10;95973.31;;;16.87;56.31
39243;BME280;29823;47.404;8.566;2023-04-24T13:02:38;95971.50;;;16.44;54.69
39243;BME280;29823;47.404;8.566;2023-04-24T13:05:07;95969.97;;;15.85;55.92